Terminal Aerodrome Forecast
Issued by NWS

Home | Current Version | Previous Version | Text Only | Print | Product List | Glossary On
Versions: 1 2 3 4 5 6 7 8 9 10 11 12 13 14 15
818
FTAK31 PAJN 212320
TAFAJN
TAF
PAJN 212320Z 2200/2224 24006KT P6SM SCT050 BKN100
     FM220600 VRB03KT P6SM FEW080
     FM222100 10006KT P6SM BKN060=

USA.gov is the U.S. government's official web portal to all federal, state and local government web resources and services.